createdAt,value
2023-06-24T00:01:47.970Z,79.10
2023-06-24T00:04:17.002Z,78.84
2023-06-24T00:06:44.704Z,78.96
2023-06-24T00:09:12.562Z,78.82
2023-06-24T00:11:40.274Z,79.07
2023-06-24T00:14:07.837Z,78.94
2023-06-24T00:16:36.533Z,78.85
2023-06-24T00:19:04.490Z,78.70
2023-06-24T00:21:32.248Z,78.69
2023-06-24T00:24:05.241Z,79.01
2023-06-24T00:26:32.970Z,79.57
2023-06-24T00:29:00.666Z,79.75
2023-06-24T00:31:28.907Z,80.00
2023-06-24T00:33:56.728Z,79.74
2023-06-24T00:36:24.994Z,79.65
2023-06-24T00:38:52.860Z,79.81
2023-06-24T00:41:21.360Z,79.60
2023-06-24T00:43:49.121Z,79.58
2023-06-24T00:46:16.944Z,79.53
2023-06-24T00:48:44.352Z,79.45
2023-06-24T00:51:12.508Z,79.36
2023-06-24T00:53:40.492Z,79.36
2023-06-24T00:56:08.079Z,79.31
2023-06-24T00:58:37.813Z,79.25
2023-06-24T01:01:06.247Z,79.29
2023-06-24T01:03:34.644Z,79.33
2023-06-24T01:06:02.494Z,79.53
2023-06-24T01:08:30.609Z,79.39
2023-06-24T01:10:59.256Z,79.48
2023-06-24T01:13:27.270Z,79.78
2023-06-24T01:15:55.471Z,79.70
2023-06-24T01:18:31.624Z,79.62
2023-06-24T01:21:13.854Z,79.60
2023-06-24T01:24:11.021Z,79.62
2023-06-24T01:27:16.718Z,79.78
2023-06-24T01:30:12.374Z,79.79
2023-06-24T01:32:48.607Z,79.94
2023-06-24T01:35:27.139Z,80.15
2023-06-24T01:37:59.625Z,80.06
2023-06-24T01:40:37.905Z,80.07
2023-06-24T01:43:07.528Z,80.09
2023-06-24T01:45:40.373Z,80.13
2023-06-24T01:48:19.171Z,80.33
2023-06-24T01:50:58.068Z,80.58
2023-06-24T01:53:33.806Z,80.81
2023-06-24T01:56:04.681Z,81.04
2023-06-24T01:58:35.775Z,81.60
2023-06-24T02:01:05.631Z,82.25
2023-06-24T02:03:34.860Z,82.54
2023-06-24T02:06:03.849Z,82.77
2023-06-24T02:08:35.346Z,82.84
2023-06-24T02:11:05.057Z,82.82
2023-06-24T02:13:36.256Z,83.12
2023-06-24T02:16:09.523Z,82.75
2023-06-24T02:18:42.956Z,82.56
2023-06-24T02:21:12.029Z,82.30
2023-06-24T02:23:40.058Z,82.14
2023-06-24T02:26:08.290Z,82.13
2023-06-24T02:28:36.820Z,81.66
2023-06-24T02:31:06.838Z,80.17
2023-06-24T02:33:34.880Z,78.61
2023-06-24T02:36:02.709Z,78.19
2023-06-24T02:38:30.307Z,78.12
2023-06-24T02:40:58.995Z,77.98
2023-06-24T02:43:26.604Z,77.75
2023-06-24T02:45:54.896Z,77.45
2023-06-24T02:48:23.361Z,77.21
2023-06-24T02:50:52.007Z,77.21
2023-06-24T02:53:20.083Z,77.02
2023-06-24T02:55:48.962Z,76.55
2023-06-24T02:58:17.137Z,76.08
2023-06-24T03:00:46.888Z,75.84
2023-06-24T03:03:17.451Z,75.75
2023-06-24T03:05:57.146Z,75.31
2023-06-24T03:08:26.808Z,74.78
2023-06-24T03:10:58.942Z,74.70
2023-06-24T03:13:28.406Z,74.90
2023-06-24T03:16:00.735Z,75.02
2023-06-24T03:18:29.019Z,75.15
2023-06-24T03:20:56.606Z,75.18
2023-06-24T03:23:26.211Z,75.04
2023-06-24T03:25:54.729Z,74.94
2023-06-24T03:28:22.753Z,75.02
2023-06-24T03:30:52.503Z,74.85
2023-06-24T03:33:20.932Z,74.61
2023-06-24T03:35:48.692Z,74.50
2023-06-24T03:38:18.245Z,74.69
2023-06-24T03:40:47.209Z,74.45
2023-06-24T03:43:15.706Z,74.43
2023-06-24T03:45:43.506Z,74.27
2023-06-24T03:48:11.715Z,74.14
2023-06-24T03:50:39.916Z,74.19
2023-06-24T03:53:07.656Z,74.29
2023-06-24T03:55:35.538Z,75.10
2023-06-24T03:58:03.399Z,75.82
2023-06-24T04:00:30.981Z,77.25
2023-06-24T04:03:00.461Z,78.12
2023-06-24T04:05:29.621Z,79.04
2023-06-24T04:07:57.254Z,81.27
2023-06-24T04:10:25.266Z,81.11
2023-06-24T04:12:53.077Z,82.17
2023-06-24T04:15:20.801Z,82.83
2023-06-24T04:17:48.530Z,84.95
2023-06-24T04:20:16.410Z,85.62
2023-06-24T04:22:44.555Z,87.00
2023-06-24T04:25:14.028Z,86.43
2023-06-24T04:27:44.514Z,85.97
2023-06-24T04:30:13.105Z,88.00
2023-06-24T04:32:41.251Z,88.27
2023-06-24T04:35:09.134Z,89.51
2023-06-24T04:37:37.751Z,89.24
2023-06-24T04:40:07.260Z,89.61
2023-06-24T04:42:35.081Z,89.97
2023-06-24T04:45:05.043Z,91.34
2023-06-24T04:47:32.906Z,90.81
2023-06-24T04:50:00.812Z,91.49
2023-06-24T04:52:31.351Z,91.69
2023-06-24T04:54:59.016Z,92.13
2023-06-24T04:57:32.470Z,92.04
2023-06-24T05:00:00.210Z,91.44
2023-06-24T05:02:28.083Z,91.63
2023-06-24T05:04:55.989Z,91.49
2023-06-24T05:07:25.625Z,91.09
2023-06-24T05:09:53.300Z,90.35
2023-06-24T05:12:20.761Z,89.78
2023-06-24T05:14:54.668Z,87.80
2023-06-24T05:17:52.763Z,87.45
2023-06-24T05:20:28.446Z,87.00
2023-06-24T05:23:03.410Z,86.92
2023-06-24T05:25:31.086Z,87.07
2023-06-24T05:27:58.807Z,87.29
2023-06-24T05:30:26.281Z,87.62
2023-06-24T05:32:54.219Z,87.31
2023-06-24T05:35:22.017Z,87.74
2023-06-24T05:37:49.646Z,88.39
2023-06-24T05:40:17.667Z,88.52
2023-06-24T05:42:47.539Z,87.83
2023-06-24T05:45:15.275Z,89.09
2023-06-24T05:47:43.345Z,88.17
2023-06-24T05:50:10.758Z,86.10
2023-06-24T05:52:38.606Z,86.37
2023-06-24T05:55:06.974Z,86.20
2023-06-24T05:57:34.668Z,85.95
2023-06-24T06:00:04.101Z,86.00
2023-06-24T06:02:35.689Z,85.99
2023-06-24T06:05:06.718Z,85.93
2023-06-24T06:07:35.448Z,86.19
2023-06-24T06:10:03.420Z,86.15
2023-06-24T06:12:31.286Z,86.25
2023-06-24T06:15:07.587Z,86.16
2023-06-24T06:17:37.898Z,86.53
2023-06-24T06:20:08.363Z,86.65
2023-06-24T06:22:37.775Z,86.83
2023-06-24T06:25:08.015Z,86.67
2023-06-24T06:27:35.924Z,86.23
2023-06-24T06:30:05.440Z,86.41
2023-06-24T06:32:33.351Z,86.34
2023-06-24T06:35:01.064Z,86.30
2023-06-24T06:37:28.803Z,86.52
2023-06-24T06:39:58.200Z,86.28
2023-06-24T06:42:26.602Z,85.75
2023-06-24T06:44:54.391Z,85.96
2023-06-24T06:47:24.719Z,86.31
2023-06-24T06:49:52.482Z,85.65
2023-06-24T06:52:20.111Z,85.42
2023-06-24T06:54:47.950Z,84.87
2023-06-24T06:57:15.759Z,85.06
2023-06-24T06:59:43.371Z,84.33
2023-06-24T07:02:13.569Z,84.57
2023-06-24T07:04:44.937Z,83.67
2023-06-24T07:07:12.696Z,82.37
2023-06-24T07:09:40.603Z,81.64
2023-06-24T07:12:09.306Z,80.49
2023-06-24T07:14:37.121Z,80.85
2023-06-24T07:17:05.363Z,78.91
2023-06-24T07:19:33.239Z,79.17
2023-06-24T07:22:03.090Z,77.49
2023-06-24T07:24:31.325Z,76.62
2023-06-24T07:26:59.632Z,77.26
2023-06-24T07:29:27.177Z,77.52
2023-06-24T07:31:57.934Z,77.00
2023-06-24T07:34:25.771Z,75.93
2023-06-24T07:36:53.480Z,75.20
2023-06-24T07:39:21.183Z,75.03
2023-06-24T07:41:48.742Z,73.90
2023-06-24T07:44:16.437Z,73.04
2023-06-24T07:46:44.685Z,75.31
2023-06-24T07:49:12.137Z,74.38
2023-06-24T07:51:40.954Z,72.93
2023-06-24T07:54:08.638Z,71.66
2023-06-24T07:56:38.294Z,70.82
2023-06-24T07:59:06.215Z,63.24
2023-06-24T08:01:34.097Z,62.00
2023-06-24T08:04:01.842Z,62.59
2023-06-24T08:06:29.432Z,63.34
2023-06-24T08:08:57.110Z,60.36
2023-06-24T08:11:25.391Z,61.45
2023-06-24T08:13:58.472Z,61.71
2023-06-24T08:16:26.566Z,60.78
2023-06-24T08:18:54.446Z,59.54
2023-06-24T08:21:22.441Z,59.42
2023-06-24T08:23:50.767Z,56.06
2023-06-24T08:26:22.250Z,55.45
2023-06-24T08:28:49.931Z,55.40
2023-06-24T08:31:25.147Z,52.92
2023-06-24T08:34:03.517Z,52.85
2023-06-24T08:36:33.812Z,53.49
2023-06-24T08:39:01.503Z,51.49
2023-06-24T08:41:35.526Z,51.60
2023-06-24T08:44:03.508Z,52.82
2023-06-24T08:46:34.018Z,52.14
2023-06-24T08:49:09.749Z,51.71
2023-06-24T08:51:41.499Z,50.67
2023-06-24T08:54:10.941Z,48.83
2023-06-24T08:56:42.082Z,48.54
2023-06-24T08:59:10.244Z,48.37
2023-06-24T09:01:38.047Z,48.16
2023-06-24T09:04:06.164Z,47.94
2023-06-24T09:06:34.050Z,48.66
2023-06-24T09:09:02.071Z,49.00
2023-06-24T09:11:30.051Z,49.14
2023-06-24T09:13:59.290Z,49.17
2023-06-24T09:16:29.854Z,48.49
2023-06-24T09:18:57.364Z,47.01
2023-06-24T09:21:30.898Z,46.88
2023-06-24T09:23:59.766Z,46.07
2023-06-24T09:26:30.408Z,44.85
2023-06-24T09:28:58.802Z,44.73
2023-06-24T09:31:26.655Z,45.01
2023-06-24T09:33:59.346Z,43.99
2023-06-24T09:36:29.158Z,44.14
2023-06-24T09:39:02.041Z,43.61
2023-06-24T09:41:29.710Z,43.72
2023-06-24T09:43:59.587Z,44.55
2023-06-24T09:46:29.017Z,44.34
2023-06-24T09:48:57.250Z,43.50
2023-06-24T09:51:26.411Z,42.16
2023-06-24T09:53:56.912Z,43.21
2023-06-24T09:56:24.507Z,43.71
2023-06-24T09:58:51.983Z,43.08
2023-06-24T10:01:19.834Z,43.89
2023-06-24T10:06:59.250Z,44.04
2023-06-24T10:09:28.121Z,45.05
2023-06-24T10:11:59.140Z,44.01
2023-06-24T10:14:27.320Z,44.07
2023-06-24T10:17:06.699Z,44.43
2023-06-24T10:19:43.635Z,44.58
2023-06-24T10:22:12.531Z,43.41
2023-06-24T10:24:44.822Z,42.14
2023-06-24T10:27:19.163Z,42.31
2023-06-24T10:29:50.153Z,42.90
2023-06-24T10:32:20.263Z,43.01
2023-06-24T10:34:59.534Z,43.45
2023-06-24T10:37:33.621Z,43.21
2023-06-24T10:40:09.714Z,42.57
2023-06-24T10:42:44.521Z,41.62
2023-06-24T10:45:20.221Z,40.58
2023-06-24T10:47:53.372Z,40.10
2023-06-24T10:50:23.866Z,39.52
2023-06-24T10:52:57.865Z,40.21
2023-06-24T10:55:26.640Z,39.52
2023-06-24T10:57:54.884Z,39.14
2023-06-24T11:00:23.348Z,38.72
2023-06-24T11:02:51.060Z,39.21
2023-06-24T11:05:24.633Z,38.60
2023-06-24T11:07:52.602Z,38.96
2023-06-24T11:10:20.546Z,39.56
2023-06-24T11:12:48.583Z,40.01
2023-06-24T11:15:16.659Z,40.17
2023-06-24T11:17:44.640Z,40.01
2023-06-24T11:20:14.585Z,39.69
2023-06-24T11:22:44.238Z,40.31
2023-06-24T11:25:22.117Z,40.11
2023-06-24T11:27:53.672Z,39.64
2023-06-24T11:30:22.498Z,39.13
2023-06-24T11:32:51.083Z,38.84
2023-06-24T11:35:19.174Z,39.13
2023-06-24T11:37:49.798Z,39.13
2023-06-24T11:40:20.964Z,39.08
2023-06-24T11:42:51.388Z,38.03
2023-06-24T11:45:22.513Z,38.70
2023-06-24T11:47:50.810Z,37.94
2023-06-24T11:50:18.971Z,37.87
2023-06-24T11:52:50.797Z,37.00
2023-06-24T11:55:25.249Z,37.93
2023-06-24T11:58:06.967Z,38.04
2023-06-24T12:00:42.462Z,38.59
2023-06-24T12:03:12.632Z,37.32
2023-06-24T12:05:43.406Z,37.73
2023-06-24T12:08:14.530Z,38.60
2023-06-24T12:10:42.583Z,38.51
2023-06-24T12:13:12.691Z,39.28
2023-06-24T12:15:43.964Z,38.94
2023-06-24T12:18:14.786Z,39.31
2023-06-24T12:20:44.459Z,39.54
2023-06-24T12:23:18.475Z,39.63
2023-06-24T12:25:46.884Z,40.29
2023-06-24T12:28:17.648Z,40.02
2023-06-24T12:30:47.841Z,40.40
2023-06-24T12:33:18.464Z,41.25
2023-06-24T12:35:46.896Z,40.63
2023-06-24T12:38:16.606Z,40.77
2023-06-24T12:40:45.548Z,41.20
2023-06-24T12:43:13.647Z,41.41
2023-06-24T12:45:46.556Z,41.21
2023-06-24T12:48:15.055Z,41.70
2023-06-24T12:50:43.553Z,41.89
2023-06-24T12:53:15.765Z,42.14
2023-06-24T12:55:45.398Z,42.24
2023-06-24T12:58:18.543Z,42.27
2023-06-24T13:00:46.363Z,42.10
2023-06-24T13:03:14.164Z,42.35
2023-06-24T13:05:42.329Z,42.39
2023-06-24T13:08:12.025Z,42.43
2023-06-24T13:10:40.886Z,42.45
2023-06-24T13:13:14.803Z,42.52
2023-06-24T13:15:42.915Z,42.67
2023-06-24T13:18:12.468Z,42.55
2023-06-24T13:20:40.332Z,42.47
2023-06-24T13:23:08.056Z,41.55
2023-06-24T13:25:35.766Z,41.94
2023-06-24T13:28:03.591Z,42.13
2023-06-24T13:30:31.569Z,42.38
2023-06-24T13:33:01.522Z,42.76
2023-06-24T13:35:29.413Z,42.64
2023-06-24T13:37:59.189Z,42.45
2023-06-24T13:40:27.327Z,42.50
2023-06-24T13:42:57.248Z,42.58
2023-06-24T13:45:29.059Z,42.33
2023-06-24T13:47:57.215Z,42.06
2023-06-24T13:50:26.319Z,41.87
2023-06-24T13:52:55.207Z,42.01
2023-06-24T13:58:41.794Z,40.68
2023-06-24T14:01:11.609Z,40.91
2023-06-24T14:03:39.732Z,40.97
2023-06-24T14:06:20.939Z,40.60
2023-06-24T14:08:52.263Z,41.45
2023-06-24T14:11:20.422Z,40.86
2023-06-24T14:13:57.472Z,41.11
2023-06-24T14:16:31.025Z,41.76
2023-06-24T14:19:00.794Z,41.71
2023-06-24T14:21:32.417Z,41.74
2023-06-24T14:24:15.855Z,42.08
2023-06-24T14:26:44.724Z,41.67
2023-06-24T14:29:19.015Z,41.45
2023-06-24T14:31:49.386Z,41.77
2023-06-24T14:34:24.194Z,42.28
2023-06-24T14:36:51.894Z,42.46
2023-06-24T14:39:28.686Z,42.24
2023-06-24T14:44:34.756Z,42.81
2023-06-24T14:47:03.408Z,42.72
2023-06-24T14:49:31.542Z,42.74
2023-06-24T14:51:59.458Z,42.92
2023-06-24T14:54:27.449Z,43.00
2023-06-24T14:56:55.168Z,42.56
2023-06-24T14:59:23.058Z,42.35
2023-06-24T15:01:50.808Z,42.27
2023-06-24T15:04:20.004Z,42.44
2023-06-24T15:06:47.964Z,42.63
2023-06-24T15:09:16.366Z,42.66
2023-06-24T15:11:44.407Z,42.23
2023-06-24T15:14:12.478Z,42.12
2023-06-24T15:16:40.169Z,40.95
2023-06-24T15:19:08.303Z,40.99
2023-06-24T15:21:37.436Z,41.17
2023-06-24T15:24:07.076Z,41.30
2023-06-24T15:26:34.972Z,41.65
2023-06-24T15:29:03.001Z,41.21
2023-06-24T15:31:31.031Z,41.38
2023-06-24T15:34:02.097Z,41.52
2023-06-24T15:36:35.300Z,40.86
2023-06-24T15:39:03.776Z,41.29
2023-06-24T15:41:31.647Z,41.57
2023-06-24T15:43:59.650Z,41.68
2023-06-24T15:46:27.377Z,42.00
2023-06-24T15:48:55.084Z,42.09
2023-06-24T15:51:23.245Z,42.41
2023-06-24T15:53:51.346Z,42.58
2023-06-24T15:56:19.274Z,43.01
2023-06-24T15:58:47.791Z,43.73
2023-06-24T16:01:15.637Z,44.22
2023-06-24T16:03:43.071Z,44.64
2023-06-24T16:06:12.359Z,44.67
2023-06-24T16:08:40.167Z,44.95
2023-06-24T16:11:08.008Z,45.25
2023-06-24T16:13:35.667Z,45.55
2023-06-24T16:16:03.680Z,46.18
2023-06-24T16:18:31.438Z,46.72
2023-06-24T16:20:59.300Z,47.08
2023-06-24T16:23:27.185Z,47.55
2023-06-24T16:25:54.996Z,47.93
2023-06-24T16:28:23.464Z,48.65
2023-06-24T16:30:51.340Z,49.52
2023-06-24T16:33:19.451Z,49.94
2023-06-24T16:35:47.377Z,50.40
2023-06-24T16:38:15.291Z,50.89
2023-06-24T16:40:43.027Z,51.66
2023-06-24T16:43:11.318Z,52.11
2023-06-24T16:45:39.048Z,52.18
2023-06-24T16:48:06.795Z,52.44
2023-06-24T16:50:35.598Z,53.11
2023-06-24T16:53:03.618Z,53.02
2023-06-24T16:55:31.314Z,53.64
2023-06-24T16:57:58.832Z,53.90
2023-06-24T17:00:26.564Z,54.00
2023-06-24T17:02:54.223Z,54.09
2023-06-24T17:05:22.122Z,54.34
2023-06-24T17:07:49.682Z,54.61
2023-06-24T17:10:17.237Z,54.79
2023-06-24T17:12:44.908Z,54.95
2023-06-24T17:15:12.441Z,55.22
2023-06-24T17:17:40.082Z,55.43
2023-06-24T17:20:09.172Z,55.89
2023-06-24T17:22:36.790Z,56.11
2023-06-24T17:25:05.191Z,56.06
2023-06-24T17:27:32.799Z,56.32
2023-06-24T17:30:00.330Z,56.40
2023-06-24T17:32:29.121Z,56.79
2023-06-24T17:34:56.716Z,56.73
2023-06-24T17:37:24.571Z,56.88
2023-06-24T17:39:52.080Z,57.03
2023-06-24T17:42:20.446Z,57.19
2023-06-24T17:44:48.012Z,57.38
2023-06-24T17:47:15.505Z,57.43
2023-06-24T17:49:43.160Z,57.70
2023-06-24T17:52:10.760Z,57.87
2023-06-24T17:54:38.153Z,57.95
2023-06-24T17:57:06.086Z,58.03
2023-06-24T17:59:34.146Z,58.19
2023-06-24T18:02:02.122Z,58.30
2023-06-24T18:04:29.979Z,58.28
2023-06-24T18:06:57.688Z,58.34
2023-06-24T18:09:25.141Z,58.49
2023-06-24T18:11:54.680Z,58.45
2023-06-24T18:14:23.582Z,58.77
2023-06-24T18:16:52.702Z,58.74
2023-06-24T18:19:20.531Z,59.04
2023-06-24T18:21:48.312Z,59.12
2023-06-24T18:24:16.039Z,59.22
2023-06-24T18:26:45.671Z,59.38
2023-06-24T18:29:13.459Z,59.36
2023-06-24T18:31:43.233Z,59.51
2023-06-24T18:34:11.630Z,59.77
2023-06-24T18:36:39.638Z,59.92
2023-06-24T18:39:07.375Z,60.28
2023-06-24T18:41:35.240Z,60.30
2023-06-24T18:44:05.112Z,60.38
2023-06-24T18:46:33.246Z,60.51
2023-06-24T18:49:00.999Z,60.52
2023-06-24T18:51:28.692Z,60.63
2023-06-24T18:53:56.705Z,60.78
2023-06-24T18:56:24.349Z,60.80
2023-06-24T18:58:52.182Z,60.93
2023-06-24T19:01:20.130Z,61.00
2023-06-24T19:03:48.156Z,61.05
2023-06-24T19:06:15.954Z,61.26
2023-06-24T19:08:43.869Z,61.13
2023-06-24T19:11:11.291Z,61.17
2023-06-24T19:13:38.944Z,61.20
2023-06-24T19:16:06.653Z,61.21
2023-06-24T19:18:34.178Z,61.32
2023-06-24T19:21:01.732Z,61.48
2023-06-24T19:23:29.222Z,61.70
2023-06-24T19:25:56.770Z,62.15
2023-06-24T19:28:24.458Z,62.46
2023-06-24T19:30:52.206Z,62.68
2023-06-24T19:33:19.873Z,62.99
2023-06-24T19:35:47.404Z,63.15
2023-06-24T19:38:16.529Z,63.20
2023-06-24T19:40:44.328Z,63.40
2023-06-24T19:43:11.897Z,63.83
2023-06-24T19:45:39.788Z,63.71
2023-06-24T19:48:07.764Z,63.92
2023-06-24T19:50:35.820Z,64.04
2023-06-24T19:53:03.685Z,64.24
2023-06-24T19:55:31.634Z,64.50
2023-06-24T19:57:59.926Z,64.82
2023-06-24T20:00:27.357Z,64.80
2023-06-24T20:02:55.629Z,65.12
2023-06-24T20:05:23.334Z,65.45
2023-06-24T20:07:50.843Z,65.62
2023-06-24T20:10:18.526Z,65.78
2023-06-24T20:12:46.924Z,66.14
2023-06-24T20:15:14.509Z,66.47
2023-06-24T20:17:44.402Z,66.95
2023-06-24T20:20:13.946Z,67.97
2023-06-24T20:22:41.987Z,68.59
2023-06-24T20:25:09.750Z,69.44
2023-06-24T20:27:37.796Z,69.81
2023-06-24T20:30:07.365Z,69.93
2023-06-24T20:32:36.185Z,69.90
2023-06-24T20:35:05.996Z,69.67
2023-06-24T20:37:34.066Z,69.72
2023-06-24T20:40:02.738Z,69.98
2023-06-24T20:42:30.516Z,69.99
2023-06-24T20:44:58.294Z,70.17
2023-06-24T20:47:26.069Z,70.20
2023-06-24T20:49:56.627Z,70.29
2023-06-24T20:52:24.294Z,70.47
2023-06-24T20:54:53.181Z,70.53
2023-06-24T20:57:20.945Z,70.68
2023-06-24T20:59:48.656Z,70.66
2023-06-24T21:02:16.482Z,70.67
2023-06-24T21:04:44.327Z,70.78
2023-06-24T21:07:13.358Z,70.92
2023-06-24T21:09:41.246Z,70.85
2023-06-24T21:12:09.216Z,70.83
2023-06-24T21:14:36.973Z,71.07
2023-06-24T21:17:05.345Z,70.96
2023-06-24T21:19:32.935Z,71.02
2023-06-24T21:22:00.922Z,71.00
2023-06-24T21:24:28.738Z,70.87
2023-06-24T21:26:56.479Z,71.06
2023-06-24T21:29:24.159Z,70.98
2023-06-24T21:31:52.997Z,70.97
2023-06-24T21:34:20.988Z,70.98
2023-06-24T21:36:48.845Z,71.08
2023-06-24T21:39:16.481Z,71.15
2023-06-24T21:41:46.180Z,71.06
2023-06-24T21:44:14.087Z,70.98
2023-06-24T21:46:43.175Z,71.05
2023-06-24T21:49:13.946Z,71.07
2023-06-24T21:51:41.833Z,71.32
2023-06-24T21:54:09.643Z,71.30
2023-06-24T21:56:38.477Z,71.31
2023-06-24T21:59:07.772Z,71.27
2023-06-24T22:01:35.441Z,71.63
2023-06-24T22:04:03.388Z,71.54
2023-06-24T22:06:32.363Z,71.46
2023-06-24T22:09:00.134Z,71.84
2023-06-24T22:11:28.373Z,71.99
2023-06-24T22:13:57.859Z,72.02
2023-06-24T22:16:25.685Z,71.92
2023-06-24T22:18:55.226Z,72.12
2023-06-24T22:21:23.447Z,72.38
2023-06-24T22:23:51.312Z,72.86
2023-06-24T22:26:19.169Z,73.05
2023-06-24T22:28:46.923Z,73.02
2023-06-24T22:31:14.790Z,73.43
2023-06-24T22:33:42.541Z,73.51
2023-06-24T22:36:10.389Z,73.66
2023-06-24T22:38:38.066Z,73.70
2023-06-24T22:41:05.874Z,73.96
2023-06-24T22:43:33.406Z,73.98
2023-06-24T22:46:03.684Z,74.05
2023-06-24T22:48:31.307Z,74.22
2023-06-24T22:51:00.698Z,74.35
2023-06-24T22:53:28.335Z,74.35
2023-06-24T22:55:56.012Z,74.31
2023-06-24T22:58:23.797Z,74.33
2023-06-24T23:00:52.442Z,74.39
2023-06-24T23:03:20.653Z,74.93
2023-06-24T23:05:49.145Z,75.29
2023-06-24T23:08:17.909Z,75.36
2023-06-24T23:10:45.892Z,75.60
2023-06-24T23:13:14.239Z,75.55
2023-06-24T23:15:42.744Z,75.51
2023-06-24T23:18:11.073Z,75.62
2023-06-24T23:20:41.184Z,75.63
2023-06-24T23:23:12.874Z,75.39
2023-06-24T23:25:41.890Z,75.62
2023-06-24T23:28:13.085Z,76.05
2023-06-24T23:30:44.724Z,75.97
2023-06-24T23:33:18.137Z,75.99
2023-06-24T23:35:51.964Z,76.03
2023-06-24T23:38:21.550Z,76.10
2023-06-24T23:40:49.705Z,76.09
2023-06-24T23:43:19.801Z,76.39
2023-06-24T23:45:51.739Z,76.66
2023-06-24T23:48:19.539Z,76.94
2023-06-24T23:50:47.253Z,76.86
2023-06-24T23:53:14.852Z,76.87
2023-06-24T23:55:43.611Z,77.13
2023-06-24T23:58:11.719Z,77.18
